Bismarck, ND (58501)

9:10 AM CDT on April 25, 2017 (GMT -0500)
Apple Meadows | | Change Station

Elev 1732 ft 46.81 °N, 100.67 °W | Updated 29 seconds ago

Overcast
Overcast
28.2 °F
Feels Like 19 °F
N
10.0
Wind Variable Wind from NNE

Today
High -- | Low -- °F
--% Chance of Precip.
Yesterday
High -- | Low -- °F
Precip. -- in
Pressure 29.87 in
Visibility 10.0 miles
Clouds Overcast 1200 ft
Windchill 19 °F
Dew Point 24 °F
Humidity 86%
Rainfall 0.00 in
Snow Depth Not available.
6:37 AM 8:45 PM
Waning Crescent, 1% visible
METAR KBIS 251352Z 03019G27KT 10SM OVC012 M01/M04 A2981 RMK AO2 PK WND 04027/1343 SLP114 T10111039
Pressure 29.87 in
Visibility 10.0 miles
Clouds Overcast 1200 ft
Windchill 19 °F
Dew Point 24 °F
Humidity 86%
Rainfall 0.00 in
Snow Depth Not available.
6:37 AM 8:45 PM
Waning Crescent, 1% visible
METAR KBIS 251352Z 03019G27KT 10SM OVC012 M01/M04 A2981 RMK AO2 PK WND 04027/1343 SLP114 T10111039

Get Severe Weather Alerts

Thanks for signing up!

Be on the lookout for a verification email in your inbox.

You'll start receiving the daily forecast at 8 AM.

×

10-Day Weather Forecast

Almanac

Astronomy

Apr. 25, 2017 Rise Set
Actual Time
Civil Twilight
Nautical Twilight
Astronomical Twilight
Moon
Length of Visible Light
Length of Day
Tomorrow will be .
, % of the Moon is Illuminated

Today's Extremes

State Highs State Lows

Community

WunderPhotos

WunderBlog® & News

Nearby

Air Quality

  Air Quality AQ Index Pollutant
Not available.

Snow Depth

Station Depth Elevation

Earthquake Activity

City Distance Mag. Time & Date
Minimum magnitude displayed is 2.5.

Coastal Water Temperatures

Place Temperature

Stations

Nearby Weather Stations

Station Location Temp. Windchill Dew Point Humidity Wind Precip. Elev Updated Type
                   

Watches & Warnings

There are currently no watches in effect.